createdAt,value
2019-01-17T00:04:29.784Z,4.40
2019-01-17T00:10:49.743Z,4.40
2019-01-17T00:17:01.904Z,4.30
2019-01-17T00:23:14.749Z,4.30
2019-01-17T00:29:25.040Z,4.40
2019-01-17T00:35:28.628Z,4.40
2019-01-17T00:41:34.697Z,4.40
2019-01-17T00:47:47.132Z,4.30
2019-01-17T00:53:53.188Z,4.40
2019-01-17T00:59:56.508Z,4.40
2019-01-17T01:06:15.008Z,4.60
2019-01-17T01:12:33.483Z,4.70
2019-01-17T01:18:53.352Z,4.60
2019-01-17T01:25:05.548Z,4.70
2019-01-17T01:31:12.759Z,4.60
2019-01-17T01:37:31.276Z,4.60
2019-01-17T01:43:51.048Z,4.60
2019-01-17T01:50:03.288Z,4.70
2019-01-17T01:56:04.592Z,4.80
2019-01-17T02:02:05.903Z,4.70
2019-01-17T02:08:07.332Z,4.60
2019-01-17T02:14:08.640Z,4.50
2019-01-17T02:20:10.060Z,4.70
2019-01-17T02:26:11.540Z,4.60
2019-01-17T02:32:13.848Z,4.50
2019-01-17T02:38:15.333Z,4.50
2019-01-17T02:44:16.741Z,4.50
2019-01-17T02:50:18.463Z,4.50
2019-01-17T02:56:19.912Z,4.60
2019-01-17T03:02:21.227Z,4.60
2019-01-17T03:08:22.671Z,4.80
2019-01-17T03:14:24.121Z,4.70
2019-01-17T03:20:25.572Z,4.80
2019-01-17T03:26:26.988Z,4.60
2019-01-17T03:32:29.169Z,4.60
2019-01-17T03:38:30.739Z,4.70
2019-01-17T03:44:32.140Z,4.80
2019-01-17T03:50:33.444Z,4.70
2019-01-17T03:56:34.752Z,4.70
2019-01-17T04:02:36.178Z,4.60
2019-01-17T04:08:37.612Z,4.60
2019-01-17T04:14:38.973Z,4.70
2019-01-17T04:20:40.388Z,4.60
2019-01-17T04:26:41.905Z,4.60
2019-01-17T04:32:44.124Z,4.60
2019-01-17T04:38:45.623Z,4.50
2019-01-17T04:44:47.022Z,4.40
2019-01-17T04:50:48.830Z,4.40
2019-01-17T04:56:50.236Z,4.50
2019-01-17T05:02:51.751Z,4.50
2019-01-17T05:08:53.229Z,4.60
2019-01-17T05:14:54.684Z,4.60
2019-01-17T05:20:56.245Z,4.70
2019-01-17T05:26:57.655Z,4.90
2019-01-17T05:33:00.688Z,4.70
2019-01-17T05:39:04.997Z,4.70
2019-01-17T05:45:06.712Z,4.80
2019-01-17T05:51:08.092Z,4.70
2019-01-17T05:57:09.373Z,4.60
2019-01-17T06:03:10.785Z,4.80
2019-01-17T06:09:12.217Z,4.90
2019-01-17T06:15:15.576Z,4.90
2019-01-17T06:21:16.984Z,4.80
2019-01-17T06:27:18.400Z,4.90
2019-01-17T06:33:20.632Z,4.80
2019-01-17T06:39:22.095Z,4.70
2019-01-17T06:45:23.371Z,4.90
2019-01-17T06:51:24.781Z,4.90
2019-01-17T06:57:26.191Z,4.90
2019-01-17T07:03:27.500Z,4.90
2019-01-17T07:09:28.836Z,5.00
2019-01-17T07:15:30.251Z,5.20
2019-01-17T07:21:31.660Z,5.50
2019-01-17T07:27:33.144Z,6.10
2019-01-17T07:33:35.331Z,7.30
2019-01-17T07:39:36.896Z,8.10
2019-01-17T07:45:39.403Z,8.40
2019-01-17T07:51:41.084Z,8.60
2019-01-17T07:57:42.484Z,8.30
2019-01-17T08:03:43.801Z,8.70
2019-01-17T08:09:46.159Z,9.80
2019-01-17T08:15:47.788Z,9.50
2019-01-17T08:21:49.176Z,9.60
2019-01-17T08:27:50.709Z,9.60
2019-01-17T08:33:53.016Z,9.10
2019-01-17T08:39:54.604Z,8.10
2019-01-17T08:45:56.005Z,7.60
2019-01-17T08:51:57.713Z,7.10
2019-01-17T08:57:59.017Z,6.60
2019-01-17T09:04:00.384Z,6.20
2019-01-17T09:10:02.428Z,6.10
2019-01-17T09:16:04.925Z,7.10
2019-01-17T09:22:06.300Z,9.50
2019-01-17T09:28:07.710Z,13.20
2019-01-17T09:34:10.056Z,15.80
2019-01-17T09:40:19.647Z,17.80
2019-01-17T09:46:21.061Z,17.80
2019-01-17T09:52:22.444Z,15.10
2019-01-17T09:58:23.855Z,12.70
2019-01-17T10:04:26.704Z,10.90
2019-01-17T10:10:28.159Z,10.20
2019-01-17T10:16:33.288Z,12.30
2019-01-17T10:22:53.448Z,14.30
2019-01-17T10:29:04.534Z,15.70
2019-01-17T10:35:20.428Z,16.80
2019-01-17T10:41:57.448Z,17.30
2019-01-17T10:48:19.292Z,14.00
2019-01-17T10:54:43.616Z,10.50
2019-01-17T11:00:54.439Z,9.30
2019-01-17T11:07:08.448Z,8.60
2019-01-17T11:13:28.190Z,8.80
2019-01-17T11:20:03.304Z,8.60
2019-01-17T11:26:23.780Z,9.00
2019-01-17T11:32:31.836Z,8.70
2019-01-17T11:38:44.101Z,8.90
2019-01-17T11:44:49.400Z,9.20
2019-01-17T11:51:00.816Z,9.20
2019-01-17T11:57:05.897Z,9.20
2019-01-17T12:03:13.772Z,9.10
2019-01-17T12:09:15.173Z,9.00
2019-01-17T12:15:16.700Z,8.80
2019-01-17T12:21:18.753Z,8.60
2019-01-17T12:27:20.163Z,8.60
2019-01-17T12:33:21.653Z,8.60
2019-01-17T12:39:24.135Z,8.70
2019-01-17T12:45:25.665Z,8.60
2019-01-17T12:51:27.066Z,8.50
2019-01-17T12:57:28.726Z,8.30
2019-01-17T13:03:30.130Z,8.10
2019-01-17T13:09:31.545Z,8.10
2019-01-17T13:15:32.928Z,8.10
2019-01-17T13:21:34.284Z,8.00
2019-01-17T13:27:35.676Z,7.90
2019-01-17T13:33:37.200Z,7.60
2019-01-17T13:39:41.236Z,7.50
2019-01-17T13:45:42.752Z,7.40
2019-01-17T13:51:44.156Z,7.40
2019-01-17T13:57:45.463Z,7.20
2019-01-17T14:03:46.744Z,7.10
2019-01-17T14:09:48.154Z,7.00
2019-01-17T14:15:49.501Z,6.90
2019-01-17T14:21:50.952Z,6.90
2019-01-17T14:27:52.377Z,6.80
2019-01-17T14:33:53.885Z,6.70
2019-01-17T14:39:56.983Z,6.60
2019-01-17T14:45:58.383Z,6.40
2019-01-17T14:51:59.692Z,6.20
2019-01-17T14:58:01.100Z,6.10
2019-01-17T15:04:02.509Z,5.90
2019-01-17T15:10:07.794Z,5.80
2019-01-17T15:16:09.241Z,5.70
2019-01-17T15:22:10.645Z,5.70
2019-01-17T15:37:09.549Z,5.50
2019-01-17T15:48:51.036Z,5.40
2019-01-17T16:00:32.571Z,5.50
2019-01-17T16:12:14.088Z,5.50
2019-01-17T16:23:55.504Z,5.40
2019-01-17T16:35:37.025Z,5.50
2019-01-17T16:47:18.520Z,5.50
2019-01-17T16:59:00.717Z,5.80
2019-01-17T17:10:42.253Z,5.80
2019-01-17T17:22:23.712Z,5.80
2019-01-17T17:34:07.266Z,5.90
2019-01-17T17:45:48.840Z,6.00
2019-01-17T17:57:30.461Z,6.00
2019-01-17T18:09:12.764Z,5.90
2019-01-17T18:20:54.273Z,5.80
2019-01-17T18:32:41.640Z,6.00
2019-01-17T18:44:23.064Z,6.10
2019-01-17T18:56:05.809Z,6.30
2019-01-17T19:07:47.348Z,6.30
2019-01-17T19:19:29.668Z,6.20
2019-01-17T19:31:11.116Z,6.20
2019-01-17T19:42:52.399Z,6.30
2019-01-17T19:54:33.768Z,6.40
2019-01-17T20:06:16.056Z,6.40
2019-01-17T20:17:59.273Z,6.50
2019-01-17T20:29:41.520Z,6.40
2019-01-17T20:41:22.931Z,6.40
2019-01-17T20:53:04.317Z,6.40
2019-01-17T21:04:46.808Z,6.40
2019-01-17T21:16:28.248Z,6.30
2019-01-17T21:28:09.754Z,6.20
2019-01-17T21:39:52.076Z,6.10
2019-01-17T21:51:33.616Z,6.00
2019-01-17T22:03:15.176Z,5.80
2019-01-17T22:14:56.548Z,5.60
2019-01-17T22:26:37.986Z,5.50
2019-01-17T22:38:19.497Z,5.60
2019-01-17T22:50:01.736Z,5.70
2019-01-17T23:01:43.164Z,5.70
2019-01-17T23:13:24.540Z,5.70
2019-01-17T23:25:06.600Z,5.60
2019-01-17T23:36:48.962Z,5.60
2019-01-17T23:48:31.547Z,5.50
